This is the latest recevied weather packets stored in our database for station/object KY4LEX. If no packets are shown the sender has not sent any weather packets the latest 10 day(s).
| Time | Temp. | Humidity | Pressure | Rain* | Wind** | Luminosity | Snow |
|---|---|---|---|---|---|---|---|
| 1777605440 | 7.78° C | 86% | 1021 hPa | 0 mm | - | 0 W/m² | - |
| 1777605138 | 7.78° C | 86% | 1021.3 hPa | 0 mm | - | 0 W/m² | - |
| 1777604833 | 7.78° C | 85% | 1021.2 hPa | 0 mm | - | 0 W/m² | - |
| 1777604530 | 7.78° C | 84% | 1021.4 hPa | 0 mm | - | 0 W/m² | - |
| 1777604225 | 7.78° C | 84% | 1021.3 hPa | 0 mm | - | 0 W/m² | - |
| 1777603922 | 7.78° C | 84% | 1021.4 hPa | 0 mm | - | 0 W/m² | - |
| 1777603619 | 7.78° C | 83% | 1021.4 hPa | 0 mm | - | 0 W/m² | - |
| 1777603315 | 8.33° C | 83% | 1021.4 hPa | 0 mm | - | 0 W/m² | - |
| 1777603010 | 8.33° C | 83% | 1021.2 hPa | 0 mm | - | 0 W/m² | - |
| 1777602706 | 8.33° C | 82% | 1021.1 hPa | 0 mm | - | 0 W/m² | - |
| 1777602400 | 8.89° C | 80% | 1021.3 hPa | 0 mm | - | 0 W/m² | - |
| 1777602097 | 8.89° C | 79% | 1021.1 hPa | 0 mm | - | 0 W/m² | - |
| 1777601488 | 8.89° C | 77% | 1021.3 hPa | 0 mm | - | 0 W/m² | - |
| 1777600882 | 9.44° C | 76% | 1021.3 hPa | 0 mm | - | 0 W/m² | - |
| 1777586309 | 18.33° C | 32% | 1020.2 hPa | 0 mm | - | 246 W/m² | - |
| 1777586007 | 18.33° C | 32% | 1020 hPa | 0 mm | - | 260 W/m² | - |
| 1777585702 | 18.89° C | 31% | 1020.2 hPa | 0 mm | - | 273 W/m² | - |
| 1777583892 | 18.33° C | 32% | 1020.2 hPa | 0 mm | - | 352 W/m² | - |
| 1777580862 | 17.78° C | 37% | 1020.8 hPa | 0 mm | - | 483 W/m² | - |
| 1777579950 | 17.78° C | 36% | 1021.3 hPa | 0 mm | - | 526 W/m² | - |
| 1777579645 | 18.89° C | 33% | 1021.3 hPa | 0 mm | - | 544 W/m² | - |
| 1777578735 | 18.33° C | 35% | 1021.4 hPa | 0 mm | - | 580 W/m² | - |
| 1777578435 | 17.78° C | 36% | 1021.4 hPa | 0 mm | - | 585 W/m² | - |
| 1777577826 | 17.22° C | 36% | 1021.4 hPa | 0 mm | - | 598 W/m² | - |
| 1777577219 | 17.78° C | 38% | 1021.6 hPa | 0 mm | - | 629 W/m² | - |
* Rain latest hour (hover to see other rain measurements)
** Current wind speed in m/s (hover to see current wind gust speed)